sensor_id;sensor_type;location;lat;lon;timestamp;pressure;altitude;pressure_sealevel;temperature;humidity
80733;BME280;70130;44.534;18.678;2023-07-09T00:00:39;99463.34;;;17.42;71.49
80733;BME280;70130;44.534;18.678;2023-07-09T00:03:05;99467.84;;;17.54;71.10
80733;BME280;70130;44.534;18.678;2023-07-09T00:05:31;99463.16;;;17.51;71.01
80733;BME280;70130;44.534;18.678;2023-07-09T00:07:57;99469.28;;;17.48;71.25
80733;BME280;70130;44.534;18.678;2023-07-09T00:10:22;99468.84;;;17.46;71.03
80733;BME280;70130;44.534;18.678;2023-07-09T00:12:48;99467.13;;;17.38;71.17
80733;BME280;70130;44.534;18.678;2023-07-09T00:15:15;99470.78;;;17.45;70.88
80733;BME280;70130;44.534;18.678;2023-07-09T00:17:41;99476.41;;;17.37;71.31
80733;BME280;70130;44.534;18.678;2023-07-09T00:20:12;99467.34;;;17.29;71.40
80733;BME280;70130;44.534;18.678;2023-07-09T00:22:38;99456.94;;;17.31;71.39
80733;BME280;70130;44.534;18.678;2023-07-09T00:25:04;99473.63;;;17.33;71.29
80733;BME280;70130;44.534;18.678;2023-07-09T00:27:30;99466.56;;;17.28;71.59
80733;BME280;70130;44.534;18.678;2023-07-09T00:29:56;99471.34;;;17.35;71.04
80733;BME280;70130;44.534;18.678;2023-07-09T00:32:22;99468.91;;;17.30;70.94
80733;BME280;70130;44.534;18.678;2023-07-09T00:34:51;99482.69;;;17.21;71.80
80733;BME280;70130;44.534;18.678;2023-07-09T00:37:21;99481.41;;;17.15;71.69
80733;BME280;70130;44.534;18.678;2023-07-09T00:39:51;99483.88;;;17.05;72.47
80733;BME280;70130;44.534;18.678;2023-07-09T00:42:20;99472.31;;;17.08;72.16
80733;BME280;70130;44.534;18.678;2023-07-09T00:44:50;99480.16;;;17.13;71.63
80733;BME280;70130;44.534;18.678;2023-07-09T00:53:01;99492.75;;;16.86;72.46
80733;BME280;70130;44.534;18.678;2023-07-09T00:55:30;99485.22;;;16.95;72.13
80733;BME280;70130;44.534;18.678;2023-07-09T00:58:01;99490.56;;;16.92;72.15
80733;BME280;70130;44.534;18.678;2023-07-09T01:00:33;99474.47;;;16.83;72.49
80733;BME280;70130;44.534;18.678;2023-07-09T01:03:11;99486.56;;;16.86;72.43
80733;BME280;70130;44.534;18.678;2023-07-09T01:05:38;99477.97;;;16.83;72.31
80733;BME280;70130;44.534;18.678;2023-07-09T01:08:05;99469.94;;;16.87;71.89
80733;BME280;70130;44.534;18.678;2023-07-09T01:10:35;99482.47;;;16.76;72.54
80733;BME280;70130;44.534;18.678;2023-07-09T01:13:01;99473.56;;;16.60;72.68
80733;BME280;70130;44.534;18.678;2023-07-09T01:15:27;99481.88;;;16.67;72.68
80733;BME280;70130;44.534;18.678;2023-07-09T01:17:52;99478.81;;;16.53;72.93
80733;BME280;70130;44.534;18.678;2023-07-09T01:20:20;99486.22;;;16.40;73.51
80733;BME280;70130;44.534;18.678;2023-07-09T01:22:51;99493.13;;;16.37;73.58
80733;BME280;70130;44.534;18.678;2023-07-09T01:25:20;99491.47;;;16.33;73.78
80733;BME280;70130;44.534;18.678;2023-07-09T01:27:46;99490.16;;;16.42;73.11
80733;BME280;70130;44.534;18.678;2023-07-09T01:30:22;99494.53;;;16.31;73.59
80733;BME280;70130;44.534;18.678;2023-07-09T01:32:56;99483.50;;;16.09;74.55
80733;BME280;70130;44.534;18.678;2023-07-09T01:35:22;99496.00;;;16.29;73.86
80733;BME280;70130;44.534;18.678;2023-07-09T01:37:48;99483.69;;;16.31;73.32
80733;BME280;70130;44.534;18.678;2023-07-09T01:40:17;99502.56;;;16.43;73.10
80733;BME280;70130;44.534;18.678;2023-07-09T01:42:44;99484.81;;;16.46;72.66
80733;BME280;70130;44.534;18.678;2023-07-09T01:45:11;99495.75;;;16.34;72.99
80733;BME280;70130;44.534;18.678;2023-07-09T01:47:38;99498.53;;;16.06;73.80
80733;BME280;70130;44.534;18.678;2023-07-09T01:50:05;99495.72;;;16.18;73.77
80733;BME280;70130;44.534;18.678;2023-07-09T01:52:33;99487.34;;;16.23;73.51
80733;BME280;70130;44.534;18.678;2023-07-09T01:55:00;99491.03;;;16.15;74.05
80733;BME280;70130;44.534;18.678;2023-07-09T01:57:30;99494.81;;;15.98;74.48
80733;BME280;70130;44.534;18.678;2023-07-09T02:00:02;99467.84;;;15.86;74.55
80733;BME280;70130;44.534;18.678;2023-07-09T02:02:42;99484.16;;;15.90;74.94
80733;BME280;70130;44.534;18.678;2023-07-09T02:05:10;99494.50;;;16.00;74.48
80733;BME280;70130;44.534;18.678;2023-07-09T02:07:36;99502.19;;;15.98;74.42
80733;BME280;70130;44.534;18.678;2023-07-09T02:10:02;99489.31;;;15.95;74.44
80733;BME280;70130;44.534;18.678;2023-07-09T02:12:28;99506.91;;;16.01;74.19
80733;BME280;70130;44.534;18.678;2023-07-09T02:14:53;99495.63;;;15.99;74.49
80733;BME280;70130;44.534;18.678;2023-07-09T02:17:19;99501.75;;;15.96;74.07
80733;BME280;70130;44.534;18.678;2023-07-09T02:19:45;99522.44;;;15.88;74.56
80733;BME280;70130;44.534;18.678;2023-07-09T02:22:11;99518.13;;;15.87;74.58
80733;BME280;70130;44.534;18.678;2023-07-09T02:24:37;99524.53;;;15.67;74.88
80733;BME280;70130;44.534;18.678;2023-07-09T02:27:06;99526.31;;;15.75;74.81
80733;BME280;70130;44.534;18.678;2023-07-09T02:29:33;99538.69;;;15.76;74.84
80733;BME280;70130;44.534;18.678;2023-07-09T02:32:00;99526.91;;;15.69;74.65
80733;BME280;70130;44.534;18.678;2023-07-09T02:34:27;99527.63;;;15.53;75.19
80733;BME280;70130;44.534;18.678;2023-07-09T02:36:54;99529.41;;;15.62;75.11
80733;BME280;70130;44.534;18.678;2023-07-09T02:39:21;99534.81;;;15.49;75.66
80733;BME280;70130;44.534;18.678;2023-07-09T02:41:47;99531.69;;;15.47;75.29
80733;BME280;70130;44.534;18.678;2023-07-09T02:44:13;99535.75;;;15.53;75.04
80733;BME280;70130;44.534;18.678;2023-07-09T02:46:39;99530.97;;;15.50;75.08
80733;BME280;70130;44.534;18.678;2023-07-09T02:49:06;99535.94;;;15.61;74.87
80733;BME280;70130;44.534;18.678;2023-07-09T02:51:33;99536.63;;;15.58;74.95
80733;BME280;70130;44.534;18.678;2023-07-09T02:54:00;99546.09;;;15.39;75.69
80733;BME280;70130;44.534;18.678;2023-07-09T02:56:26;99539.59;;;15.52;75.11
80733;BME280;70130;44.534;18.678;2023-07-09T02:58:52;99535.59;;;15.50;75.13
80733;BME280;70130;44.534;18.678;2023-07-09T03:01:18;99538.31;;;15.50;75.02
80733;BME280;70130;44.534;18.678;2023-07-09T03:03:51;99548.47;;;15.41;75.50
80733;BME280;70130;44.534;18.678;2023-07-09T03:06:20;99551.00;;;15.34;75.82
80733;BME280;70130;44.534;18.678;2023-07-09T03:08:45;99545.78;;;15.41;75.67
80733;BME280;70130;44.534;18.678;2023-07-09T03:11:12;99560.63;;;15.47;75.72
80733;BME280;70130;44.534;18.678;2023-07-09T03:13:38;99562.09;;;15.44;75.70
80733;BME280;70130;44.534;18.678;2023-07-09T03:16:04;99561.22;;;15.40;75.85
80733;BME280;70130;44.534;18.678;2023-07-09T03:18:30;99545.03;;;15.28;76.07
80733;BME280;70130;44.534;18.678;2023-07-09T03:20:56;99549.31;;;15.29;76.06
80733;BME280;70130;44.534;18.678;2023-07-09T03:23:22;99560.25;;;15.08;76.68
80733;BME280;70130;44.534;18.678;2023-07-09T03:25:48;99548.84;;;15.27;76.02
80733;BME280;70130;44.534;18.678;2023-07-09T03:28:13;99547.38;;;15.30;75.85
80733;BME280;70130;44.534;18.678;2023-07-09T03:30:43;99553.47;;;15.39;75.48
80733;BME280;70130;44.534;18.678;2023-07-09T03:33:09;99553.88;;;15.41;74.96
80733;BME280;70130;44.534;18.678;2023-07-09T03:35:35;99562.69;;;15.26;75.61
80733;BME280;70130;44.534;18.678;2023-07-09T03:38:02;99563.94;;;15.28;75.59
80733;BME280;70130;44.534;18.678;2023-07-09T03:40:27;99555.38;;;15.26;75.28
80733;BME280;70130;44.534;18.678;2023-07-09T03:42:53;99571.81;;;15.33;75.09
80733;BME280;70130;44.534;18.678;2023-07-09T03:45:18;99566.84;;;15.35;75.03
80733;BME280;70130;44.534;18.678;2023-07-09T03:47:44;99565.97;;;15.31;74.85
80733;BME280;70130;44.534;18.678;2023-07-09T03:50:10;99578.47;;;15.36;75.40
80733;BME280;70130;44.534;18.678;2023-07-09T03:52:37;99563.03;;;15.36;74.35
80733;BME280;70130;44.534;18.678;2023-07-09T03:55:03;99568.66;;;15.43;74.62
80733;BME280;70130;44.534;18.678;2023-07-09T03:57:33;99577.09;;;15.42;74.91
80733;BME280;70130;44.534;18.678;2023-07-09T03:59:59;99570.22;;;15.44;75.12
80733;BME280;70130;44.534;18.678;2023-07-09T04:02:24;99567.50;;;15.44;75.13
80733;BME280;70130;44.534;18.678;2023-07-09T04:04:50;99564.13;;;15.47;74.61
80733;BME280;70130;44.534;18.678;2023-07-09T04:07:16;99565.72;;;15.48;74.72
80733;BME280;70130;44.534;18.678;2023-07-09T04:09:41;99576.31;;;15.53;74.71
80733;BME280;70130;44.534;18.678;2023-07-09T04:12:08;99575.88;;;15.51;74.73
80733;BME280;70130;44.534;18.678;2023-07-09T04:14:34;99574.06;;;15.55;74.60
80733;BME280;70130;44.534;18.678;2023-07-09T04:17:00;99566.94;;;15.63;74.32
80733;BME280;70130;44.534;18.678;2023-07-09T04:19:26;99572.53;;;15.70;74.33
80733;BME280;70130;44.534;18.678;2023-07-09T04:21:52;99573.09;;;15.76;74.48
80733;BME280;70130;44.534;18.678;2023-07-09T04:24:19;99567.28;;;15.89;73.77
80733;BME280;70130;44.534;18.678;2023-07-09T04:26:45;99558.28;;;15.85;73.64
80733;BME280;70130;44.534;18.678;2023-07-09T04:29:12;99570.19;;;15.96;74.17
80733;BME280;70130;44.534;18.678;2023-07-09T04:31:38;99575.31;;;15.86;74.04
80733;BME280;70130;44.534;18.678;2023-07-09T04:34:04;99573.84;;;15.88;74.04
80733;BME280;70130;44.534;18.678;2023-07-09T04:36:30;99566.50;;;15.89;74.17
80733;BME280;70130;44.534;18.678;2023-07-09T04:38:56;99582.44;;;16.06;73.90
80733;BME280;70130;44.534;18.678;2023-07-09T04:41:22;99577.13;;;16.10;73.15
80733;BME280;70130;44.534;18.678;2023-07-09T04:43:48;99577.22;;;16.13;73.21
80733;BME280;70130;44.534;18.678;2023-07-09T04:46:13;99578.78;;;16.14;73.15
80733;BME280;70130;44.534;18.678;2023-07-09T04:48:39;99562.44;;;16.11;73.23
80733;BME280;70130;44.534;18.678;2023-07-09T04:51:04;99575.56;;;16.24;73.21
80733;BME280;70130;44.534;18.678;2023-07-09T04:53:30;99576.13;;;16.30;73.22
80733;BME280;70130;44.534;18.678;2023-07-09T04:55:56;99571.16;;;16.32;73.75
80733;BME280;70130;44.534;18.678;2023-07-09T04:58:22;99568.00;;;16.46;73.15
80733;BME280;70130;44.534;18.678;2023-07-09T05:00:47;99578.34;;;16.56;73.22
80733;BME280;70130;44.534;18.678;2023-07-09T05:03:13;99581.69;;;16.65;72.93
80733;BME280;70130;44.534;18.678;2023-07-09T05:05:44;99578.25;;;16.68;73.12
80733;BME280;70130;44.534;18.678;2023-07-09T05:08:10;99573.75;;;16.72;72.79
80733;BME280;70130;44.534;18.678;2023-07-09T05:10:41;99584.81;;;16.82;72.11
80733;BME280;70130;44.534;18.678;2023-07-09T05:13:07;99581.09;;;16.87;72.63
80733;BME280;70130;44.534;18.678;2023-07-09T05:15:33;99581.94;;;16.91;72.05
80733;BME280;70130;44.534;18.678;2023-07-09T05:17:58;99589.09;;;16.99;72.26
80733;BME280;70130;44.534;18.678;2023-07-09T05:20:24;99587.00;;;17.08;71.66
80733;BME280;70130;44.534;18.678;2023-07-09T05:22:51;99584.00;;;17.13;71.68
80733;BME280;70130;44.534;18.678;2023-07-09T05:25:17;99570.81;;;17.12;71.36
80733;BME280;70130;44.534;18.678;2023-07-09T05:27:43;99575.31;;;17.23;71.36
80733;BME280;70130;44.534;18.678;2023-07-09T05:30:09;99579.78;;;17.32;71.21
80733;BME280;70130;44.534;18.678;2023-07-09T05:32:36;99579.94;;;17.39;70.98
80733;BME280;70130;44.534;18.678;2023-07-09T05:35:02;99584.00;;;17.48;70.57
80733;BME280;70130;44.534;18.678;2023-07-09T05:37:28;99587.22;;;17.54;70.04
80733;BME280;70130;44.534;18.678;2023-07-09T05:39:53;99578.38;;;17.57;69.87
80733;BME280;70130;44.534;18.678;2023-07-09T05:42:19;99580.16;;;17.65;70.14
80733;BME280;70130;44.534;18.678;2023-07-09T05:44:45;99573.19;;;17.67;70.06
80733;BME280;70130;44.534;18.678;2023-07-09T05:47:10;99570.25;;;17.76;68.93
80733;BME280;70130;44.534;18.678;2023-07-09T05:49:38;99572.50;;;17.90;68.87
80733;BME280;70130;44.534;18.678;2023-07-09T05:52:04;99567.13;;;17.93;69.01
80733;BME280;70130;44.534;18.678;2023-07-09T05:54:29;99575.56;;;18.07;68.16
80733;BME280;70130;44.534;18.678;2023-07-09T05:56:55;99565.13;;;18.09;67.80
80733;BME280;70130;44.534;18.678;2023-07-09T05:59:20;99561.28;;;18.10;67.36
80733;BME280;70130;44.534;18.678;2023-07-09T06:01:46;99559.69;;;18.09;67.58
80733;BME280;70130;44.534;18.678;2023-07-09T06:04:12;99561.09;;;18.23;67.64
80733;BME280;70130;44.534;18.678;2023-07-09T06:06:40;99555.00;;;18.29;67.14
80733;BME280;70130;44.534;18.678;2023-07-09T06:09:09;99566.44;;;18.38;67.11
80733;BME280;70130;44.534;18.678;2023-07-09T06:11:35;99565.47;;;18.50;66.73
80733;BME280;70130;44.534;18.678;2023-07-09T06:14:01;99567.47;;;18.53;66.95
80733;BME280;70130;44.534;18.678;2023-07-09T06:16:27;99552.81;;;18.58;66.27
80733;BME280;70130;44.534;18.678;2023-07-09T06:18:52;99560.88;;;18.77;66.27
80733;BME280;70130;44.534;18.678;2023-07-09T06:21:18;99566.94;;;18.89;65.78
80733;BME280;70130;44.534;18.678;2023-07-09T06:23:47;99569.44;;;19.02;65.94
80733;BME280;70130;44.534;18.678;2023-07-09T06:26:12;99569.94;;;19.11;65.60
80733;BME280;70130;44.534;18.678;2023-07-09T06:28:38;99568.50;;;19.17;66.12
80733;BME280;70130;44.534;18.678;2023-07-09T06:31:04;99565.41;;;19.18;65.48
80733;BME280;70130;44.534;18.678;2023-07-09T06:33:30;99567.06;;;19.26;65.65
80733;BME280;70130;44.534;18.678;2023-07-09T06:36:00;99577.00;;;19.41;65.05
80733;BME280;70130;44.534;18.678;2023-07-09T06:38:27;99569.63;;;19.42;65.46
80733;BME280;70130;44.534;18.678;2023-07-09T06:40:53;99591.63;;;19.56;65.04
80733;BME280;70130;44.534;18.678;2023-07-09T06:43:19;99589.41;;;19.65;64.65
80733;BME280;70130;44.534;18.678;2023-07-09T06:45:56;99571.81;;;19.59;64.64
80733;BME280;70130;44.534;18.678;2023-07-09T06:48:22;99588.72;;;19.72;64.83
80733;BME280;70130;44.534;18.678;2023-07-09T06:50:49;99582.75;;;19.93;63.78
80733;BME280;70130;44.534;18.678;2023-07-09T06:53:15;99571.78;;;19.89;64.25
80733;BME280;70130;44.534;18.678;2023-07-09T06:55:41;99576.59;;;19.99;64.20
80733;BME280;70130;44.534;18.678;2023-07-09T06:58:07;99579.38;;;20.03;63.74
80733;BME280;70130;44.534;18.678;2023-07-09T07:00:36;99574.31;;;20.05;63.87
80733;BME280;70130;44.534;18.678;2023-07-09T07:03:03;99570.50;;;20.13;63.53
80733;BME280;70130;44.534;18.678;2023-07-09T07:05:28;99581.63;;;20.31;65.14
80733;BME280;70130;44.534;18.678;2023-07-09T07:07:54;99573.47;;;20.34;64.03
80733;BME280;70130;44.534;18.678;2023-07-09T07:10:20;99578.28;;;20.48;63.37
80733;BME280;70130;44.534;18.678;2023-07-09T07:12:47;99576.75;;;20.47;63.90
80733;BME280;70130;44.534;18.678;2023-07-09T07:15:16;99587.66;;;20.50;64.04
80733;BME280;70130;44.534;18.678;2023-07-09T07:17:42;99580.41;;;20.65;63.30
80733;BME280;70130;44.534;18.678;2023-07-09T07:20:10;99578.16;;;20.78;62.44
80733;BME280;70130;44.534;18.678;2023-07-09T07:22:36;99571.63;;;20.86;61.71
80733;BME280;70130;44.534;18.678;2023-07-09T07:25:04;99579.88;;;20.96;62.04
80733;BME280;70130;44.534;18.678;2023-07-09T07:27:30;99572.44;;;20.97;61.67
80733;BME280;70130;44.534;18.678;2023-07-09T07:29:55;99565.06;;;20.97;61.70
80733;BME280;70130;44.534;18.678;2023-07-09T07:32:21;99565.09;;;21.01;61.94
80733;BME280;70130;44.534;18.678;2023-07-09T07:34:47;99559.75;;;21.15;61.98
80733;BME280;70130;44.534;18.678;2023-07-09T07:37:14;99552.09;;;21.35;61.26
80733;BME280;70130;44.534;18.678;2023-07-09T07:39:39;99562.22;;;21.38;61.42
80733;BME280;70130;44.534;18.678;2023-07-09T07:42:06;99557.19;;;21.47;61.15
80733;BME280;70130;44.534;18.678;2023-07-09T07:44:32;99558.78;;;21.51;60.64
80733;BME280;70130;44.534;18.678;2023-07-09T07:46:57;99556.53;;;21.71;60.27
80733;BME280;70130;44.534;18.678;2023-07-09T07:49:23;99560.41;;;21.67;59.76
80733;BME280;70130;44.534;18.678;2023-07-09T07:51:48;99560.09;;;21.82;59.35
80733;BME280;70130;44.534;18.678;2023-07-09T07:54:14;99561.25;;;21.78;59.50
80733;BME280;70130;44.534;18.678;2023-07-09T07:56:40;99560.88;;;21.79;59.05
80733;BME280;70130;44.534;18.678;2023-07-09T07:59:06;99562.06;;;21.89;59.64
80733;BME280;70130;44.534;18.678;2023-07-09T08:01:32;99559.41;;;22.03;57.17
80733;BME280;70130;44.534;18.678;2023-07-09T08:04:01;99549.25;;;22.04;56.96
80733;BME280;70130;44.534;18.678;2023-07-09T08:06:27;99551.22;;;22.07;57.24
80733;BME280;70130;44.534;18.678;2023-07-09T08:08:52;99530.50;;;22.02;57.36
80733;BME280;70130;44.534;18.678;2023-07-09T08:11:18;99546.19;;;22.40;57.48
80733;BME280;70130;44.534;18.678;2023-07-09T08:13:44;99535.25;;;22.55;58.19
80733;BME280;70130;44.534;18.678;2023-07-09T08:16:09;99548.16;;;22.44;57.53
80733;BME280;70130;44.534;18.678;2023-07-09T08:18:37;99544.25;;;22.62;57.03
80733;BME280;70130;44.534;18.678;2023-07-09T08:21:03;99527.44;;;22.60;56.29
80733;BME280;70130;44.534;18.678;2023-07-09T08:23:29;99551.69;;;22.79;55.61
80733;BME280;70130;44.534;18.678;2023-07-09T08:25:56;99550.13;;;22.96;56.57
80733;BME280;70130;44.534;18.678;2023-07-09T08:28:23;99545.03;;;23.02;55.46
80733;BME280;70130;44.534;18.678;2023-07-09T08:30:50;99544.66;;;23.03;55.54
80733;BME280;70130;44.534;18.678;2023-07-09T08:33:16;99540.72;;;23.04;55.66
80733;BME280;70130;44.534;18.678;2023-07-09T08:35:42;99543.88;;;23.03;55.33
80733;BME280;70130;44.534;18.678;2023-07-09T08:38:08;99545.41;;;23.14;55.45
80733;BME280;70130;44.534;18.678;2023-07-09T08:40:39;99554.75;;;23.24;55.34
80733;BME280;70130;44.534;18.678;2023-07-09T08:43:35;99539.13;;;23.32;55.04
80733;BME280;70130;44.534;18.678;2023-07-09T08:48:48;99543.72;;;23.66;51.12
80733;BME280;70130;44.534;18.678;2023-07-09T08:51:24;99538.19;;;23.77;51.91
80733;BME280;70130;44.534;18.678;2023-07-09T08:53:56;99538.19;;;23.77;52.29
80733;BME280;70130;44.534;18.678;2023-07-09T08:56:23;99544.00;;;23.90;51.90
80733;BME280;70130;44.534;18.678;2023-07-09T08:58:50;99532.59;;;23.98;51.42
80733;BME280;70130;44.534;18.678;2023-07-09T09:01:25;99540.91;;;24.50;50.37
80733;BME280;70130;44.534;18.678;2023-07-09T09:03:57;99526.88;;;24.41;49.74
80733;BME280;70130;44.534;18.678;2023-07-09T09:06:29;99528.38;;;24.49;49.00
80733;BME280;70130;44.534;18.678;2023-07-09T09:14:42;99537.75;;;25.00;44.77
80733;BME280;70130;44.534;18.678;2023-07-09T09:17:18;99523.72;;;24.90;43.00
80733;BME280;70130;44.534;18.678;2023-07-09T09:19:48;99543.53;;;25.09;43.40
80733;BME280;70130;44.534;18.678;2023-07-09T09:22:18;99543.44;;;25.19;43.57
80733;BME280;70130;44.534;18.678;2023-07-09T09:25:41;99546.22;;;25.16;42.57
80733;BME280;70130;44.534;18.678;2023-07-09T09:27:47;99540.28;;;25.21;41.57
80733;BME280;70130;44.534;18.678;2023-07-09T09:30:15;99534.81;;;25.21;41.46
80733;BME280;70130;44.534;18.678;2023-07-09T09:32:47;99525.78;;;25.17;42.66
80733;BME280;70130;44.534;18.678;2023-07-09T09:35:16;99538.28;;;25.25;42.43
80733;BME280;70130;44.534;18.678;2023-07-09T09:37:49;99541.88;;;25.56;42.23
80733;BME280;70130;44.534;18.678;2023-07-09T09:40:18;99538.03;;;25.46;43.61
80733;BME280;70130;44.534;18.678;2023-07-09T09:42:47;99544.84;;;25.34;43.30
80733;BME280;70130;44.534;18.678;2023-07-09T09:45:16;99538.16;;;25.35;42.19
80733;BME280;70130;44.534;18.678;2023-07-09T09:47:43;99539.97;;;25.49;43.00
80733;BME280;70130;44.534;18.678;2023-07-09T09:50:20;99547.97;;;25.70;42.59
80733;BME280;70130;44.534;18.678;2023-07-09T09:52:47;99540.81;;;25.76;41.96
80733;BME280;70130;44.534;18.678;2023-07-09T09:55:20;99546.06;;;25.67;43.16
80733;BME280;70130;44.534;18.678;2023-07-09T09:57:53;99534.88;;;25.82;42.70
80733;BME280;70130;44.534;18.678;2023-07-09T10:00:22;99543.69;;;26.00;42.35
80733;BME280;70130;44.534;18.678;2023-07-09T10:02:50;99540.59;;;26.21;41.55
80733;BME280;70130;44.534;18.678;2023-07-09T10:05:28;99536.31;;;26.47;41.31
80733;BME280;70130;44.534;18.678;2023-07-09T10:08:08;99535.03;;;26.78;41.46
80733;BME280;70130;44.534;18.678;2023-07-09T10:10:35;99536.22;;;26.77;41.14
80733;BME280;70130;44.534;18.678;2023-07-09T10:16:02;99530.22;;;26.82;38.88
80733;BME280;70130;44.534;18.678;2023-07-09T10:18:47;99518.59;;;26.71;38.88
80733;BME280;70130;44.534;18.678;2023-07-09T10:21:34;99525.44;;;26.63;39.09
80733;BME280;70130;44.534;18.678;2023-07-09T10:26:56;99530.66;;;26.57;39.40
80733;BME280;70130;44.534;18.678;2023-07-09T10:35:01;99527.94;;;26.77;40.64
80733;BME280;70130;44.534;18.678;2023-07-09T10:38:06;99520.97;;;26.96;39.29
80733;BME280;70130;44.534;18.678;2023-07-09T10:40:41;99524.41;;;27.23;38.43
80733;BME280;70130;44.534;18.678;2023-07-09T10:43:18;99521.63;;;27.03;38.25
80733;BME280;70130;44.534;18.678;2023-07-09T10:45:48;99524.44;;;27.20;39.30
80733;BME280;70130;44.534;18.678;2023-07-09T10:48:20;99525.50;;;27.26;38.53
80733;BME280;70130;44.534;18.678;2023-07-09T10:50:53;99524.03;;;27.21;39.21
80733;BME280;70130;44.534;18.678;2023-07-09T10:53:48;99529.91;;;27.23;38.41
80733;BME280;70130;44.534;18.678;2023-07-09T10:56:19;99525.59;;;26.99;37.30
80733;BME280;70130;44.534;18.678;2023-07-09T11:01:46;99532.97;;;26.82;38.20
80733;BME280;70130;44.534;18.678;2023-07-09T11:04:40;99528.44;;;26.72;38.17
80733;BME280;70130;44.534;18.678;2023-07-09T11:07:12;99522.44;;;26.54;38.22
80733;BME280;70130;44.534;18.678;2023-07-09T11:09:42;99514.91;;;26.81;38.42
80733;BME280;70130;44.534;18.678;2023-07-09T11:12:14;99522.13;;;27.18;37.24
80733;BME280;70130;44.534;18.678;2023-07-09T11:14:47;99511.38;;;27.43;37.17
80733;BME280;70130;44.534;18.678;2023-07-09T11:17:19;99512.16;;;27.64;37.79
80733;BME280;70130;44.534;18.678;2023-07-09T11:19:55;99506.44;;;27.74;36.41
80733;BME280;70130;44.534;18.678;2023-07-09T11:22:24;99505.59;;;27.77;35.58
80733;BME280;70130;44.534;18.678;2023-07-09T11:24:52;99496.56;;;27.93;35.39
80733;BME280;70130;44.534;18.678;2023-07-09T11:27:19;99504.81;;;28.13;35.74
80733;BME280;70130;44.534;18.678;2023-07-09T11:29:47;99500.09;;;28.29;35.33
80733;BME280;70130;44.534;18.678;2023-07-09T11:32:21;99506.09;;;28.57;36.94
80733;BME280;70130;44.534;18.678;2023-07-09T11:34:47;99491.38;;;28.80;35.61
80733;BME280;70130;44.534;18.678;2023-07-09T11:37:14;99491.47;;;28.76;35.01
80733;BME280;70130;44.534;18.678;2023-07-09T11:42:33;99482.91;;;28.38;35.81
80733;BME280;70130;44.534;18.678;2023-07-09T11:45:09;99493.69;;;28.49;34.54
80733;BME280;70130;44.534;18.678;2023-07-09T11:55:43;99489.09;;;28.10;36.02
80733;BME280;70130;44.534;18.678;2023-07-09T11:58:12;99490.84;;;27.84;35.12
80733;BME280;70130;44.534;18.678;2023-07-09T12:00:46;99478.91;;;27.90;34.98
80733;BME280;70130;44.534;18.678;2023-07-09T12:03:32;99482.72;;;27.97;35.56
80733;BME280;70130;44.534;18.678;2023-07-09T12:06:01;99481.47;;;27.98;35.35
80733;BME280;70130;44.534;18.678;2023-07-09T12:08:34;99468.78;;;27.84;35.23
80733;BME280;70130;44.534;18.678;2023-07-09T12:11:00;99467.31;;;28.15;35.11
80733;BME280;70130;44.534;18.678;2023-07-09T12:13:25;99473.94;;;28.50;35.39
80733;BME280;70130;44.534;18.678;2023-07-09T12:15:51;99470.41;;;28.33;35.22
80733;BME280;70130;44.534;18.678;2023-07-09T12:18:17;99469.78;;;28.58;34.84
80733;BME280;70130;44.534;18.678;2023-07-09T12:20:53;99467.81;;;28.75;35.43
80733;BME280;70130;44.534;18.678;2023-07-09T12:23:25;99470.06;;;28.48;35.98
80733;BME280;70130;44.534;18.678;2023-07-09T12:25:53;99467.44;;;28.57;35.71
80733;BME280;70130;44.534;18.678;2023-07-09T12:28:20;99462.88;;;28.83;35.55
80733;BME280;70130;44.534;18.678;2023-07-09T12:30:47;99465.09;;;28.88;35.38
80733;BME280;70130;44.534;18.678;2023-07-09T12:33:17;99463.78;;;28.92;35.83
80733;BME280;70130;44.534;18.678;2023-07-09T12:35:43;99464.91;;;29.24;34.73
80733;BME280;70130;44.534;18.678;2023-07-09T12:38:17;99464.91;;;29.24;34.96
80733;BME280;70130;44.534;18.678;2023-07-09T12:40:44;99460.53;;;29.39;34.12
80733;BME280;70130;44.534;18.678;2023-07-09T12:43:11;99469.94;;;29.12;35.42
80733;BME280;70130;44.534;18.678;2023-07-09T12:45:36;99453.81;;;28.66;33.98
80733;BME280;70130;44.534;18.678;2023-07-09T12:48:03;99465.19;;;28.84;34.39
80733;BME280;70130;44.534;18.678;2023-07-09T12:50:35;99446.63;;;29.13;35.27
80733;BME280;70130;44.534;18.678;2023-07-09T12:53:08;99457.25;;;29.69;35.46
80733;BME280;70130;44.534;18.678;2023-07-09T12:55:41;99438.81;;;30.04;33.09
80733;BME280;70130;44.534;18.678;2023-07-09T12:58:28;99437.91;;;30.07;33.16
80733;BME280;70130;44.534;18.678;2023-07-09T13:00:56;99439.81;;;30.57;31.62
80733;BME280;70130;44.534;18.678;2023-07-09T13:03:30;99433.44;;;30.69;31.08
80733;BME280;70130;44.534;18.678;2023-07-09T13:06:03;99443.00;;;30.90;31.13
80733;BME280;70130;44.534;18.678;2023-07-09T13:08:42;99432.72;;;30.56;31.45
80733;BME280;70130;44.534;18.678;2023-07-09T13:11:16;99429.81;;;30.13;31.47
80733;BME280;70130;44.534;18.678;2023-07-09T13:13:57;99433.75;;;30.37;30.96
80733;BME280;70130;44.534;18.678;2023-07-09T13:16:22;99437.66;;;30.27;29.81
80733;BME280;70130;44.534;18.678;2023-07-09T13:18:48;99441.84;;;30.31;31.27
80733;BME280;70130;44.534;18.678;2023-07-09T13:21:17;99429.94;;;30.09;32.51
80733;BME280;70130;44.534;18.678;2023-07-09T13:23:43;99438.38;;;30.40;34.13
80733;BME280;70130;44.534;18.678;2023-07-09T13:26:08;99431.59;;;30.19;32.15
80733;BME280;70130;44.534;18.678;2023-07-09T13:28:35;99438.84;;;30.51;32.07
80733;BME280;70130;44.534;18.678;2023-07-09T13:33:33;99434.06;;;30.05;32.78
80733;BME280;70130;44.534;18.678;2023-07-09T13:35:58;99437.41;;;30.47;32.94
80733;BME280;70130;44.534;18.678;2023-07-09T13:38:24;99434.19;;;30.35;33.04